X  Close Metar Aviation Weather Data     KASD Slidell Airport
Temperature
75°F Temperature
72°F Dewpoint
89% Humidity



Wind
3 MPH
5 KM/H
1 M/S
3 KTS



20°
NNE
Current Conditions

Clear Clear
Pressure 1014.22 (hPa) - 29.95 (inHg)
Visibility 10 (mile) - 16.1 (km)
Airport
Airport-code KASD

Location: Slidell Airport
Distance: 1 (mi)

Metar:
KASD 240153Z AUTO 02003KT 10SM CLR 24/22 A2995 RMK AO2 SLP143 T02440217 TSNO

Time: 23-05-2022 20:53 CDT